sensor_id;sensor_type;location;lat;lon;timestamp;temperature;humidity
10231;DHT22;62604;49.432;8.680;2022-12-07T00:00:15;3.80;99.90
10231;DHT22;62604;49.432;8.680;2022-12-07T00:02:42;3.70;99.90
10231;DHT22;62604;49.432;8.680;2022-12-07T00:05:09;3.70;99.90
10231;DHT22;62604;49.432;8.680;2022-12-07T00:07:37;3.70;99.90
10231;DHT22;62604;49.432;8.680;2022-12-07T00:10:05;3.70;99.90
10231;DHT22;62604;49.432;8.680;2022-12-07T00:12:32;3.80;99.90
10231;DHT22;62604;49.432;8.680;2022-12-07T00:14:59;3.70;99.90
10231;DHT22;62604;49.432;8.680;2022-12-07T00:17:26;3.80;99.90
10231;DHT22;62604;49.432;8.680;2022-12-07T00:19:53;3.80;99.90
10231;DHT22;62604;49.432;8.680;2022-12-07T00:22:20;3.70;99.90
10231;DHT22;62604;49.432;8.680;2022-12-07T00:24:48;3.70;99.90
10231;DHT22;62604;49.432;8.680;2022-12-07T00:27:15;3.70;99.90
10231;DHT22;62604;49.432;8.680;2022-12-07T00:29:42;3.70;99.90
10231;DHT22;62604;49.432;8.680;2022-12-07T00:32:09;3.70;99.90
10231;DHT22;62604;49.432;8.680;2022-12-07T00:34:36;3.70;99.90
10231;DHT22;62604;49.432;8.680;2022-12-07T00:37:03;3.70;99.90
10231;DHT22;62604;49.432;8.680;2022-12-07T00:39:30;3.80;99.90
10231;DHT22;62604;49.432;8.680;2022-12-07T00:41:58;3.80;99.90
10231;DHT22;62604;49.432;8.680;2022-12-07T00:44:25;3.80;99.90
10231;DHT22;62604;49.432;8.680;2022-12-07T00:46:52;3.90;99.90
10231;DHT22;62604;49.432;8.680;2022-12-07T00:49:19;3.90;99.90
10231;DHT22;62604;49.432;8.680;2022-12-07T00:51:47;3.90;99.90
10231;DHT22;62604;49.432;8.680;2022-12-07T00:54:14;3.90;99.90
10231;DHT22;62604;49.432;8.680;2022-12-07T00:56:41;3.90;99.90
10231;DHT22;62604;49.432;8.680;2022-12-07T00:59:12;4.00;99.90
10231;DHT22;62604;49.432;8.680;2022-12-07T01:01:40;4.00;99.90
10231;DHT22;62604;49.432;8.680;2022-12-07T01:04:08;4.00;99.90
10231;DHT22;62604;49.432;8.680;2022-12-07T01:06:35;4.00;99.90
10231;DHT22;62604;49.432;8.680;2022-12-07T01:09:03;4.10;99.90
10231;DHT22;62604;49.432;8.680;2022-12-07T01:11:30;4.10;99.90
10231;DHT22;62604;49.432;8.680;2022-12-07T01:13:58;4.10;99.90
10231;DHT22;62604;49.432;8.680;2022-12-07T01:16:28;4.10;99.90
10231;DHT22;62604;49.432;8.680;2022-12-07T01:18:57;4.10;99.90
10231;DHT22;62604;49.432;8.680;2022-12-07T01:21:25;4.00;99.90
10231;DHT22;62604;49.432;8.680;2022-12-07T01:23:53;4.10;99.90
10231;DHT22;62604;49.432;8.680;2022-12-07T01:26:22;4.00;99.90
10231;DHT22;62604;49.432;8.680;2022-12-07T01:28:49;4.00;99.90
10231;DHT22;62604;49.432;8.680;2022-12-07T01:31:17;4.00;99.90
10231;DHT22;62604;49.432;8.680;2022-12-07T01:33:47;4.10;99.90
10231;DHT22;62604;49.432;8.680;2022-12-07T01:36:16;4.10;99.90
10231;DHT22;62604;49.432;8.680;2022-12-07T01:38:44;4.10;99.90
10231;DHT22;62604;49.432;8.680;2022-12-07T01:41:13;4.00;99.90
10231;DHT22;62604;49.432;8.680;2022-12-07T01:44:10;4.00;99.90
10231;DHT22;62604;49.432;8.680;2022-12-07T01:46:38;4.00;99.90
10231;DHT22;62604;49.432;8.680;2022-12-07T01:49:07;4.00;99.90
10231;DHT22;62604;49.432;8.680;2022-12-07T01:51:37;4.00;99.90
10231;DHT22;62604;49.432;8.680;2022-12-07T01:54:05;4.10;99.90
10231;DHT22;62604;49.432;8.680;2022-12-07T01:56:32;4.10;99.90
10231;DHT22;62604;49.432;8.680;2022-12-07T01:59:00;4.10;99.90
10231;DHT22;62604;49.432;8.680;2022-12-07T02:01:28;4.10;99.90
10231;DHT22;62604;49.432;8.680;2022-12-07T02:03:55;4.00;99.90
10231;DHT22;62604;49.432;8.680;2022-12-07T02:06:24;3.90;99.90
10231;DHT22;62604;49.432;8.680;2022-12-07T02:08:52;3.90;99.90
10231;DHT22;62604;49.432;8.680;2022-12-07T02:11:20;3.90;99.90
10231;DHT22;62604;49.432;8.680;2022-12-07T02:13:48;3.90;99.90
10231;DHT22;62604;49.432;8.680;2022-12-07T02:16:25;3.90;99.90
10231;DHT22;62604;49.432;8.680;2022-12-07T02:19:03;3.90;99.90
10231;DHT22;62604;49.432;8.680;2022-12-07T02:21:39;3.90;99.90
10231;DHT22;62604;49.432;8.680;2022-12-07T02:24:15;3.90;99.90
10231;DHT22;62604;49.432;8.680;2022-12-07T02:26:59;3.90;99.90
10231;DHT22;62604;49.432;8.680;2022-12-07T02:29:36;3.90;99.90
10231;DHT22;62604;49.432;8.680;2022-12-07T02:32:10;3.80;99.90
10231;DHT22;62604;49.432;8.680;2022-12-07T02:34:44;3.80;99.90
10231;DHT22;62604;49.432;8.680;2022-12-07T02:37:21;3.70;99.90
10231;DHT22;62604;49.432;8.680;2022-12-07T02:39:55;3.70;99.90
10231;DHT22;62604;49.432;8.680;2022-12-07T02:42:28;3.70;99.90
10231;DHT22;62604;49.432;8.680;2022-12-07T02:45:00;3.70;99.90
10231;DHT22;62604;49.432;8.680;2022-12-07T02:47:28;3.70;99.90
10231;DHT22;62604;49.432;8.680;2022-12-07T02:49:56;3.70;99.90
10231;DHT22;62604;49.432;8.680;2022-12-07T02:52:23;3.70;99.90
10231;DHT22;62604;49.432;8.680;2022-12-07T02:54:50;3.70;99.90
10231;DHT22;62604;49.432;8.680;2022-12-07T02:57:29;3.70;99.90
10231;DHT22;62604;49.432;8.680;2022-12-07T03:00:05;3.70;99.90
10231;DHT22;62604;49.432;8.680;2022-12-07T03:02:39;3.70;99.90
10231;DHT22;62604;49.432;8.680;2022-12-07T03:05:20;3.70;99.90
10231;DHT22;62604;49.432;8.680;2022-12-07T03:07:55;3.70;99.90
10231;DHT22;62604;49.432;8.680;2022-12-07T03:10:32;3.70;99.90
10231;DHT22;62604;49.432;8.680;2022-12-07T03:13:05;3.70;99.90
10231;DHT22;62604;49.432;8.680;2022-12-07T03:15:41;3.80;99.90
10231;DHT22;62604;49.432;8.680;2022-12-07T03:18:13;3.70;99.90
10231;DHT22;62604;49.432;8.680;2022-12-07T03:20:44;3.70;99.90
10231;DHT22;62604;49.432;8.680;2022-12-07T03:23:12;3.80;99.90
10231;DHT22;62604;49.432;8.680;2022-12-07T03:25:42;3.70;99.90
10231;DHT22;62604;49.432;8.680;2022-12-07T03:28:14;3.80;99.90
10231;DHT22;62604;49.432;8.680;2022-12-07T03:30:47;3.80;99.90
10231;DHT22;62604;49.432;8.680;2022-12-07T03:33:18;3.70;99.90
10231;DHT22;62604;49.432;8.680;2022-12-07T03:35:51;3.70;99.90
10231;DHT22;62604;49.432;8.680;2022-12-07T03:38:21;3.70;99.90
10231;DHT22;62604;49.432;8.680;2022-12-07T03:40:52;3.70;99.90
10231;DHT22;62604;49.432;8.680;2022-12-07T03:43:21;3.70;99.90
10231;DHT22;62604;49.432;8.680;2022-12-07T03:46:00;3.70;99.90
10231;DHT22;62604;49.432;8.680;2022-12-07T03:48:33;3.70;99.90
10231;DHT22;62604;49.432;8.680;2022-12-07T03:51:09;3.70;99.90
10231;DHT22;62604;49.432;8.680;2022-12-07T03:53:40;3.70;99.90
10231;DHT22;62604;49.432;8.680;2022-12-07T03:56:09;3.70;99.90
10231;DHT22;62604;49.432;8.680;2022-12-07T03:58:38;3.70;99.90
10231;DHT22;62604;49.432;8.680;2022-12-07T04:01:07;3.70;99.90
10231;DHT22;62604;49.432;8.680;2022-12-07T04:03:35;3.80;99.90
10231;DHT22;62604;49.432;8.680;2022-12-07T04:06:01;3.80;99.90
10231;DHT22;62604;49.432;8.680;2022-12-07T04:08:28;3.90;99.90
10231;DHT22;62604;49.432;8.680;2022-12-07T04:10:55;3.90;99.90
10231;DHT22;62604;49.432;8.680;2022-12-07T04:13:22;3.90;99.90
10231;DHT22;62604;49.432;8.680;2022-12-07T04:15:49;3.80;99.90
10231;DHT22;62604;49.432;8.680;2022-12-07T04:18:17;3.90;99.90
10231;DHT22;62604;49.432;8.680;2022-12-07T04:20:45;3.90;99.90
10231;DHT22;62604;49.432;8.680;2022-12-07T04:23:12;3.90;99.90
10231;DHT22;62604;49.432;8.680;2022-12-07T04:25:39;3.90;99.90
10231;DHT22;62604;49.432;8.680;2022-12-07T04:28:06;3.90;99.90
10231;DHT22;62604;49.432;8.680;2022-12-07T04:30:33;3.90;99.90
10231;DHT22;62604;49.432;8.680;2022-12-07T04:33:00;3.90;99.90
10231;DHT22;62604;49.432;8.680;2022-12-07T04:35:28;3.90;99.90
10231;DHT22;62604;49.432;8.680;2022-12-07T04:37:55;4.00;99.90
10231;DHT22;62604;49.432;8.680;2022-12-07T04:40:22;4.00;99.90
10231;DHT22;62604;49.432;8.680;2022-12-07T04:42:49;4.00;99.90
10231;DHT22;62604;49.432;8.680;2022-12-07T04:45:16;4.00;99.90
10231;DHT22;62604;49.432;8.680;2022-12-07T04:47:43;3.90;99.90
10231;DHT22;62604;49.432;8.680;2022-12-07T04:50:10;4.00;99.90
10231;DHT22;62604;49.432;8.680;2022-12-07T04:52:38;4.00;99.90
10231;DHT22;62604;49.432;8.680;2022-12-07T04:55:05;4.00;99.90
10231;DHT22;62604;49.432;8.680;2022-12-07T04:57:32;4.00;99.90
10231;DHT22;62604;49.432;8.680;2022-12-07T04:59:59;4.00;99.90
10231;DHT22;62604;49.432;8.680;2022-12-07T05:02:26;4.00;99.90
10231;DHT22;62604;49.432;8.680;2022-12-07T05:04:53;4.10;99.90
10231;DHT22;62604;49.432;8.680;2022-12-07T05:07:20;4.10;99.90
10231;DHT22;62604;49.432;8.680;2022-12-07T05:09:48;4.10;99.90
10231;DHT22;62604;49.432;8.680;2022-12-07T05:12:15;4.10;99.90
10231;DHT22;62604;49.432;8.680;2022-12-07T05:14:42;4.10;99.90
10231;DHT22;62604;49.432;8.680;2022-12-07T05:17:09;4.10;99.90
10231;DHT22;62604;49.432;8.680;2022-12-07T05:19:37;4.00;99.90
10231;DHT22;62604;49.432;8.680;2022-12-07T05:22:04;3.90;99.90
10231;DHT22;62604;49.432;8.680;2022-12-07T05:24:30;3.90;99.90
10231;DHT22;62604;49.432;8.680;2022-12-07T05:26:59;3.70;99.90
10231;DHT22;62604;49.432;8.680;2022-12-07T05:29:26;3.70;99.90
10231;DHT22;62604;49.432;8.680;2022-12-07T05:31:52;3.60;99.90
10231;DHT22;62604;49.432;8.680;2022-12-07T05:34:19;3.60;99.90
10231;DHT22;62604;49.432;8.680;2022-12-07T05:36:46;3.50;99.90
10231;DHT22;62604;49.432;8.680;2022-12-07T05:39:13;3.50;99.90
10231;DHT22;62604;49.432;8.680;2022-12-07T05:41:40;3.60;99.90
10231;DHT22;62604;49.432;8.680;2022-12-07T05:44:26;3.60;99.90
10231;DHT22;62604;49.432;8.680;2022-12-07T05:46:53;3.50;99.90
10231;DHT22;62604;49.432;8.680;2022-12-07T05:49:20;3.50;99.90
10231;DHT22;62604;49.432;8.680;2022-12-07T05:51:47;3.50;99.90
10231;DHT22;62604;49.432;8.680;2022-12-07T05:54:13;3.50;99.90
10231;DHT22;62604;49.432;8.680;2022-12-07T05:56:40;3.50;99.90
10231;DHT22;62604;49.432;8.680;2022-12-07T05:59:08;3.50;99.90
10231;DHT22;62604;49.432;8.680;2022-12-07T06:01:50;3.50;99.90
10231;DHT22;62604;49.432;8.680;2022-12-07T06:04:18;3.50;99.90
10231;DHT22;62604;49.432;8.680;2022-12-07T06:06:48;3.50;99.90
10231;DHT22;62604;49.432;8.680;2022-12-07T06:09:16;3.50;99.90
10231;DHT22;62604;49.432;8.680;2022-12-07T06:11:44;3.50;99.90
10231;DHT22;62604;49.432;8.680;2022-12-07T06:14:28;3.50;99.90
10231;DHT22;62604;49.432;8.680;2022-12-07T06:16:57;3.50;99.90
10231;DHT22;62604;49.432;8.680;2022-12-07T06:19:24;3.50;99.90
10231;DHT22;62604;49.432;8.680;2022-12-07T06:21:51;3.50;99.90
10231;DHT22;62604;49.432;8.680;2022-12-07T06:24:18;3.50;99.90
10231;DHT22;62604;49.432;8.680;2022-12-07T06:26:46;3.40;99.90
10231;DHT22;62604;49.432;8.680;2022-12-07T06:29:13;3.40;99.90
10231;DHT22;62604;49.432;8.680;2022-12-07T06:31:40;3.40;99.90
10231;DHT22;62604;49.432;8.680;2022-12-07T06:34:10;3.40;99.90
10231;DHT22;62604;49.432;8.680;2022-12-07T06:36:37;3.30;99.90
10231;DHT22;62604;49.432;8.680;2022-12-07T06:39:05;3.30;99.90
10231;DHT22;62604;49.432;8.680;2022-12-07T06:41:34;3.30;99.90
10231;DHT22;62604;49.432;8.680;2022-12-07T06:44:03;3.30;99.90
10231;DHT22;62604;49.432;8.680;2022-12-07T06:46:30;3.30;99.90
10231;DHT22;62604;49.432;8.680;2022-12-07T06:48:57;3.20;99.90
10231;DHT22;62604;49.432;8.680;2022-12-07T06:51:26;3.10;99.90
10231;DHT22;62604;49.432;8.680;2022-12-07T06:53:53;3.20;99.90
10231;DHT22;62604;49.432;8.680;2022-12-07T06:56:20;3.10;99.90
10231;DHT22;62604;49.432;8.680;2022-12-07T06:58:48;3.10;99.90
10231;DHT22;62604;49.432;8.680;2022-12-07T07:01:16;3.10;99.90
10231;DHT22;62604;49.432;8.680;2022-12-07T07:03:44;3.10;99.90
10231;DHT22;62604;49.432;8.680;2022-12-07T07:06:12;3.20;99.90
10231;DHT22;62604;49.432;8.680;2022-12-07T07:08:40;3.20;99.90
10231;DHT22;62604;49.432;8.680;2022-12-07T07:11:09;3.10;99.90
10231;DHT22;62604;49.432;8.680;2022-12-07T07:13:36;3.10;99.90
10231;DHT22;62604;49.432;8.680;2022-12-07T07:16:05;3.10;99.90
10231;DHT22;62604;49.432;8.680;2022-12-07T07:18:32;3.10;99.90
10231;DHT22;62604;49.432;8.680;2022-12-07T07:21:00;3.20;99.90
10231;DHT22;62604;49.432;8.680;2022-12-07T07:23:27;3.10;99.90
10231;DHT22;62604;49.432;8.680;2022-12-07T07:25:55;3.10;99.90
10231;DHT22;62604;49.432;8.680;2022-12-07T07:28:22;3.20;99.90
10231;DHT22;62604;49.432;8.680;2022-12-07T07:30:49;3.20;99.90
10231;DHT22;62604;49.432;8.680;2022-12-07T07:33:16;3.20;99.90
10231;DHT22;62604;49.432;8.680;2022-12-07T07:35:43;3.20;99.90
10231;DHT22;62604;49.432;8.680;2022-12-07T07:38:10;3.20;99.90
10231;DHT22;62604;49.432;8.680;2022-12-07T07:40:37;3.20;99.90
10231;DHT22;62604;49.432;8.680;2022-12-07T07:43:05;3.20;99.90
10231;DHT22;62604;49.432;8.680;2022-12-07T07:45:32;3.30;99.90
10231;DHT22;62604;49.432;8.680;2022-12-07T07:47:59;3.30;99.90
10231;DHT22;62604;49.432;8.680;2022-12-07T07:50:26;3.30;99.90
10231;DHT22;62604;49.432;8.680;2022-12-07T07:52:53;3.30;99.90
10231;DHT22;62604;49.432;8.680;2022-12-07T07:55:20;3.30;99.90
10231;DHT22;62604;49.432;8.680;2022-12-07T07:57:47;3.30;99.90
10231;DHT22;62604;49.432;8.680;2022-12-07T08:00:16;3.40;99.90
10231;DHT22;62604;49.432;8.680;2022-12-07T08:02:43;3.40;99.90
10231;DHT22;62604;49.432;8.680;2022-12-07T08:05:12;3.40;99.90
10231;DHT22;62604;49.432;8.680;2022-12-07T08:07:39;3.40;99.90
10231;DHT22;62604;49.432;8.680;2022-12-07T08:10:08;3.40;99.90
10231;DHT22;62604;49.432;8.680;2022-12-07T08:12:36;3.50;99.90
10231;DHT22;62604;49.432;8.680;2022-12-07T08:15:26;3.50;99.90
10231;DHT22;62604;49.432;8.680;2022-12-07T08:17:54;3.50;99.90
10231;DHT22;62604;49.432;8.680;2022-12-07T08:20:21;3.60;99.90
10231;DHT22;62604;49.432;8.680;2022-12-07T08:22:48;3.60;99.90
10231;DHT22;62604;49.432;8.680;2022-12-07T08:25:15;3.60;99.90
10231;DHT22;62604;49.432;8.680;2022-12-07T08:27:42;3.70;99.90
10231;DHT22;62604;49.432;8.680;2022-12-07T08:30:09;3.70;99.90
10231;DHT22;62604;49.432;8.680;2022-12-07T08:32:38;3.70;99.90
10231;DHT22;62604;49.432;8.680;2022-12-07T08:35:05;3.80;99.90
10231;DHT22;62604;49.432;8.680;2022-12-07T08:37:32;3.80;99.90
10231;DHT22;62604;49.432;8.680;2022-12-07T08:39:59;3.90;99.90
10231;DHT22;62604;49.432;8.680;2022-12-07T08:42:26;3.90;99.90
10231;DHT22;62604;49.432;8.680;2022-12-07T08:44:55;3.80;99.90
10231;DHT22;62604;49.432;8.680;2022-12-07T08:47:23;3.90;99.90
10231;DHT22;62604;49.432;8.680;2022-12-07T08:49:53;3.80;99.90
10231;DHT22;62604;49.432;8.680;2022-12-07T08:52:20;3.80;99.90
10231;DHT22;62604;49.432;8.680;2022-12-07T08:54:47;3.90;99.90
10231;DHT22;62604;49.432;8.680;2022-12-07T08:57:14;3.90;99.90
10231;DHT22;62604;49.432;8.680;2022-12-07T08:59:41;4.00;99.90
10231;DHT22;62604;49.432;8.680;2022-12-07T09:02:08;4.00;99.90
10231;DHT22;62604;49.432;8.680;2022-12-07T09:04:35;4.10;99.90
10231;DHT22;62604;49.432;8.680;2022-12-07T09:07:03;4.10;99.90
10231;DHT22;62604;49.432;8.680;2022-12-07T09:09:31;4.10;99.90
10231;DHT22;62604;49.432;8.680;2022-12-07T09:11:58;4.10;99.90
10231;DHT22;62604;49.432;8.680;2022-12-07T09:14:25;4.10;99.90
10231;DHT22;62604;49.432;8.680;2022-12-07T09:16:52;4.10;99.90
10231;DHT22;62604;49.432;8.680;2022-12-07T09:19:19;4.10;99.90
10231;DHT22;62604;49.432;8.680;2022-12-07T09:21:46;4.10;99.90
10231;DHT22;62604;49.432;8.680;2022-12-07T09:24:14;4.10;99.90
10231;DHT22;62604;49.432;8.680;2022-12-07T09:26:41;4.10;99.90
10231;DHT22;62604;49.432;8.680;2022-12-07T09:29:08;4.10;99.90
10231;DHT22;62604;49.432;8.680;2022-12-07T09:31:36;4.10;99.90
10231;DHT22;62604;49.432;8.680;2022-12-07T09:34:03;4.00;99.90
10231;DHT22;62604;49.432;8.680;2022-12-07T09:36:31;4.00;99.90
10231;DHT22;62604;49.432;8.680;2022-12-07T09:38:58;4.00;99.90
10231;DHT22;62604;49.432;8.680;2022-12-07T09:41:27;4.00;99.90
10231;DHT22;62604;49.432;8.680;2022-12-07T09:44:02;4.00;99.90
10231;DHT22;62604;49.432;8.680;2022-12-07T09:46:34;4.00;99.90
10231;DHT22;62604;49.432;8.680;2022-12-07T09:49:02;4.00;99.90
10231;DHT22;62604;49.432;8.680;2022-12-07T09:51:29;4.00;99.90
10231;DHT22;62604;49.432;8.680;2022-12-07T09:53:58;4.00;99.90
10231;DHT22;62604;49.432;8.680;2022-12-07T09:56:29;4.10;99.90
10231;DHT22;62604;49.432;8.680;2022-12-07T09:58:59;4.10;99.90
10231;DHT22;62604;49.432;8.680;2022-12-07T10:01:28;4.10;99.90
10231;DHT22;62604;49.432;8.680;2022-12-07T10:04:05;4.10;99.90
10231;DHT22;62604;49.432;8.680;2022-12-07T10:06:33;4.10;99.90
10231;DHT22;62604;49.432;8.680;2022-12-07T10:09:00;4.10;99.90
10231;DHT22;62604;49.432;8.680;2022-12-07T10:11:29;4.10;99.90
10231;DHT22;62604;49.432;8.680;2022-12-07T10:14:10;4.20;99.90
10231;DHT22;62604;49.432;8.680;2022-12-07T10:16:39;4.20;99.90
10231;DHT22;62604;49.432;8.680;2022-12-07T10:19:22;4.20;99.90
10231;DHT22;62604;49.432;8.680;2022-12-07T10:22:04;4.20;99.90
10231;DHT22;62604;49.432;8.680;2022-12-07T10:24:31;4.20;99.90
10231;DHT22;62604;49.432;8.680;2022-12-07T10:27:00;4.20;99.90
10231;DHT22;62604;49.432;8.680;2022-12-07T10:29:29;4.30;99.90
10231;DHT22;62604;49.432;8.680;2022-12-07T10:31:59;4.30;99.90
10231;DHT22;62604;49.432;8.680;2022-12-07T10:34:28;4.40;99.90
10231;DHT22;62604;49.432;8.680;2022-12-07T10:37:14;4.40;99.90
10231;DHT22;62604;49.432;8.680;2022-12-07T10:39:43;4.40;99.90
10231;DHT22;62604;49.432;8.680;2022-12-07T10:42:18;4.40;99.90
10231;DHT22;62604;49.432;8.680;2022-12-07T10:44:47;4.40;99.90
10231;DHT22;62604;49.432;8.680;2022-12-07T10:47:20;4.40;99.90
10231;DHT22;62604;49.432;8.680;2022-12-07T10:50:12;4.40;99.90
10231;DHT22;62604;49.432;8.680;2022-12-07T10:52:56;4.50;99.90
10231;DHT22;62604;49.432;8.680;2022-12-07T10:55:31;4.50;99.90
10231;DHT22;62604;49.432;8.680;2022-12-07T10:58:20;4.60;99.90
10231;DHT22;62604;49.432;8.680;2022-12-07T11:00:55;4.50;99.90
10231;DHT22;62604;49.432;8.680;2022-12-07T11:03:44;4.60;99.90
10231;DHT22;62604;49.432;8.680;2022-12-07T11:06:20;4.50;99.90
10231;DHT22;62604;49.432;8.680;2022-12-07T11:11:42;4.50;99.90
10231;DHT22;62604;49.432;8.680;2022-12-07T11:14:19;4.50;99.90
10231;DHT22;62604;49.432;8.680;2022-12-07T11:16:53;4.50;99.90
10231;DHT22;62604;49.432;8.680;2022-12-07T11:19:31;4.60;99.90
10231;DHT22;62604;49.432;8.680;2022-12-07T11:22:04;4.50;99.90
10231;DHT22;62604;49.432;8.680;2022-12-07T11:24:39;4.50;99.90
10231;DHT22;62604;49.432;8.680;2022-12-07T11:27:17;4.60;99.90
10231;DHT22;62604;49.432;8.680;2022-12-07T11:30:09;4.60;99.90
10231;DHT22;62604;49.432;8.680;2022-12-07T11:32:53;4.60;99.90
10231;DHT22;62604;49.432;8.680;2022-12-07T11:35:30;4.70;99.90
10231;DHT22;62604;49.432;8.680;2022-12-07T11:38:07;4.70;99.90
10231;DHT22;62604;49.432;8.680;2022-12-07T11:40:35;4.70;99.90
10231;DHT22;62604;49.432;8.680;2022-12-07T11:43:09;4.70;99.90
10231;DHT22;62604;49.432;8.680;2022-12-07T11:45:42;4.70;99.90
10231;DHT22;62604;49.432;8.680;2022-12-07T11:48:15;4.70;99.90
10231;DHT22;62604;49.432;8.680;2022-12-07T11:50:47;4.70;99.90
10231;DHT22;62604;49.432;8.680;2022-12-07T11:53:18;4.70;99.90
10231;DHT22;62604;49.432;8.680;2022-12-07T11:55:51;4.70;99.90
10231;DHT22;62604;49.432;8.680;2022-12-07T11:58:33;4.70;99.90
10231;DHT22;62604;49.432;8.680;2022-12-07T12:01:13;4.60;99.90
10231;DHT22;62604;49.432;8.680;2022-12-07T12:03:44;4.60;99.90
10231;DHT22;62604;49.432;8.680;2022-12-07T12:06:12;4.50;99.90
10231;DHT22;62604;49.432;8.680;2022-12-07T12:08:43;4.50;99.90
10231;DHT22;62604;49.432;8.680;2022-12-07T12:11:20;4.60;99.90
10231;DHT22;62604;49.432;8.680;2022-12-07T12:14:19;4.70;99.90
10231;DHT22;62604;49.432;8.680;2022-12-07T12:17:03;4.80;99.90
10231;DHT22;62604;49.432;8.680;2022-12-07T12:19:37;4.80;99.90
10231;DHT22;62604;49.432;8.680;2022-12-07T12:22:14;4.90;99.90
10231;DHT22;62604;49.432;8.680;2022-12-07T12:24:43;5.00;99.90
10231;DHT22;62604;49.432;8.680;2022-12-07T12:27:20;5.10;99.90
10231;DHT22;62604;49.432;8.680;2022-12-07T12:29:53;5.30;99.90
10231;DHT22;62604;49.432;8.680;2022-12-07T12:32:28;5.40;99.90
10231;DHT22;62604;49.432;8.680;2022-12-07T12:35:01;5.50;99.90
10231;DHT22;62604;49.432;8.680;2022-12-07T12:37:48;5.50;99.90
10231;DHT22;62604;49.432;8.680;2022-12-07T12:40:42;5.60;99.90
10231;DHT22;62604;49.432;8.680;2022-12-07T12:43:44;5.60;99.90
10231;DHT22;62604;49.432;8.680;2022-12-07T12:46:51;5.60;99.90
10231;DHT22;62604;49.432;8.680;2022-12-07T12:49:35;5.50;99.90
10231;DHT22;62604;49.432;8.680;2022-12-07T12:55:18;5.50;99.90
10231;DHT22;62604;49.432;8.680;2022-12-07T12:57:47;5.40;99.90
10231;DHT22;62604;49.432;8.680;2022-12-07T13:00:19;5.50;99.90
10231;DHT22;62604;49.432;8.680;2022-12-07T13:02:50;5.50;99.90
10231;DHT22;62604;49.432;8.680;2022-12-07T13:05:22;5.40;99.90
10231;DHT22;62604;49.432;8.680;2022-12-07T13:07:58;5.40;99.90
10231;DHT22;62604;49.432;8.680;2022-12-07T13:10:39;5.50;99.90
10231;DHT22;62604;49.432;8.680;2022-12-07T13:22:43;5.60;99.90
10231;DHT22;62604;49.432;8.680;2022-12-07T13:25:12;5.60;99.90
10231;DHT22;62604;49.432;8.680;2022-12-07T13:27:41;5.60;99.90
10231;DHT22;62604;49.432;8.680;2022-12-07T13:30:14;5.60;99.90
10231;DHT22;62604;49.432;8.680;2022-12-07T13:32:42;5.60;99.90
10231;DHT22;62604;49.432;8.680;2022-12-07T13:35:29;5.60;99.90
10231;DHT22;62604;49.432;8.680;2022-12-07T13:37:58;5.60;99.90
10231;DHT22;62604;49.432;8.680;2022-12-07T13:40:25;5.60;99.90
10231;DHT22;62604;49.432;8.680;2022-12-07T13:42:59;5.60;99.90
10231;DHT22;62604;49.432;8.680;2022-12-07T13:45:28;5.60;99.90
10231;DHT22;62604;49.432;8.680;2022-12-07T13:48:14;5.60;99.90
10231;DHT22;62604;49.432;8.680;2022-12-07T13:50:42;5.70;99.90
10231;DHT22;62604;49.432;8.680;2022-12-07T13:53:13;5.70;99.90
10231;DHT22;62604;49.432;8.680;2022-12-07T13:55:45;5.70;99.90
10231;DHT22;62604;49.432;8.680;2022-12-07T13:58:13;5.70;99.90
10231;DHT22;62604;49.432;8.680;2022-12-07T14:00:40;5.70;99.90
10231;DHT22;62604;49.432;8.680;2022-12-07T14:03:26;5.70;99.90
10231;DHT22;62604;49.432;8.680;2022-12-07T14:06:22;5.70;99.90
10231;DHT22;62604;49.432;8.680;2022-12-07T14:09:06;5.70;99.90
10231;DHT22;62604;49.432;8.680;2022-12-07T14:11:34;5.70;99.90
10231;DHT22;62604;49.432;8.680;2022-12-07T14:14:03;5.70;99.90
10231;DHT22;62604;49.432;8.680;2022-12-07T14:16:34;5.70;99.90
10231;DHT22;62604;49.432;8.680;2022-12-07T14:19:02;5.70;99.90
10231;DHT22;62604;49.432;8.680;2022-12-07T14:21:33;5.80;99.90
10231;DHT22;62604;49.432;8.680;2022-12-07T14:24:19;5.80;99.90
10231;DHT22;62604;49.432;8.680;2022-12-07T14:26:48;5.80;99.90
10231;DHT22;62604;49.432;8.680;2022-12-07T14:29:21;5.80;99.90
10231;DHT22;62604;49.432;8.680;2022-12-07T14:31:49;5.80;99.90
10231;DHT22;62604;49.432;8.680;2022-12-07T14:34:16;5.80;99.90
10231;DHT22;62604;49.432;8.680;2022-12-07T14:36:43;5.60;99.90
10231;DHT22;62604;49.432;8.680;2022-12-07T14:39:10;5.40;99.90
10231;DHT22;62604;49.432;8.680;2022-12-07T14:41:38;5.40;99.90
10231;DHT22;62604;49.432;8.680;2022-12-07T14:44:18;5.30;99.90
10231;DHT22;62604;49.432;8.680;2022-12-07T14:46:46;5.40;99.90
10231;DHT22;62604;49.432;8.680;2022-12-07T14:49:13;5.30;99.90
10231;DHT22;62604;49.432;8.680;2022-12-07T14:51:41;5.30;99.90
10231;DHT22;62604;49.432;8.680;2022-12-07T14:54:15;5.30;99.90
10231;DHT22;62604;49.432;8.680;2022-12-07T14:56:44;5.40;99.90
10231;DHT22;62604;49.432;8.680;2022-12-07T14:59:15;5.30;99.90
10231;DHT22;62604;49.432;8.680;2022-12-07T15:01:42;5.30;99.90
10231;DHT22;62604;49.432;8.680;2022-12-07T15:04:09;5.30;99.90
10231;DHT22;62604;49.432;8.680;2022-12-07T15:06:36;5.30;99.90
10231;DHT22;62604;49.432;8.680;2022-12-07T15:09:03;5.30;99.90
10231;DHT22;62604;49.432;8.680;2022-12-07T15:11:31;5.40;99.90
10231;DHT22;62604;49.432;8.680;2022-12-07T15:13:59;5.40;99.90
10231;DHT22;62604;49.432;8.680;2022-12-07T15:16:38;5.40;99.90
10231;DHT22;62604;49.432;8.680;2022-12-07T15:19:09;5.40;99.90
10231;DHT22;62604;49.432;8.680;2022-12-07T15:21:37;5.40;99.90
10231;DHT22;62604;49.432;8.680;2022-12-07T15:24:05;5.40;99.90
10231;DHT22;62604;49.432;8.680;2022-12-07T15:26:32;5.40;99.90
10231;DHT22;62604;49.432;8.680;2022-12-07T15:29:00;5.50;99.90
10231;DHT22;62604;49.432;8.680;2022-12-07T15:31:27;5.40;99.90
10231;DHT22;62604;49.432;8.680;2022-12-07T15:33:54;5.40;99.90
10231;DHT22;62604;49.432;8.680;2022-12-07T15:36:25;5.40;99.90
10231;DHT22;62604;49.432;8.680;2022-12-07T15:38:52;5.40;99.90
10231;DHT22;62604;49.432;8.680;2022-12-07T15:41:20;5.40;99.90
10231;DHT22;62604;49.432;8.680;2022-12-07T15:43:47;5.40;99.90
10231;DHT22;62604;49.432;8.680;2022-12-07T15:46:34;5.40;99.90
10231;DHT22;62604;49.432;8.680;2022-12-07T15:49:03;5.40;99.90
10231;DHT22;62604;49.432;8.680;2022-12-07T15:51:30;5.40;99.90
10231;DHT22;62604;49.432;8.680;2022-12-07T15:53:58;5.40;99.90
10231;DHT22;62604;49.432;8.680;2022-12-07T15:56:25;5.40;99.90
10231;DHT22;62604;49.432;8.680;2022-12-07T15:58:59;5.40;99.90
10231;DHT22;62604;49.432;8.680;2022-12-07T16:01:45;5.40;99.90
10231;DHT22;62604;49.432;8.680;2022-12-07T16:04:18;5.40;99.90
10231;DHT22;62604;49.432;8.680;2022-12-07T16:07:03;5.40;99.90
10231;DHT22;62604;49.432;8.680;2022-12-07T16:09:30;5.40;99.90
10231;DHT22;62604;49.432;8.680;2022-12-07T16:11:58;5.40;99.90
10231;DHT22;62604;49.432;8.680;2022-12-07T16:14:25;5.40;99.90
10231;DHT22;62604;49.432;8.680;2022-12-07T16:16:55;5.30;99.90
10231;DHT22;62604;49.432;8.680;2022-12-07T16:19:22;5.30;99.90
10231;DHT22;62604;49.432;8.680;2022-12-07T16:21:50;5.30;99.90